Time;durP1;ratioP1;P1;durP2;ratioP2;P2;SDS_P1;SDS_P2;PMS_P1;PMS_P2;Temp;Humidity;BMP_temperature;BMP_pressure;BME280_temperature;BME280_humidity;BME280_pressure;Samples;Min_cycle;Max_cycle;Signal;HPM_P1;HPM_P2
2022/11/27 00:00:09;;;;;;;74.20;19.52;;;;;;;-1.63;100.00;97087.19;1030660;28;20026;-68
2022/11/27 00:00:39;;;;;;;87.90;22.00;;;;;;;-1.66;100.00;97083.94;1022886;28;20035;-69
2022/11/27 00:01:11;;;;;;;72.15;20.77;;;;;;;-1.66;100.00;97089.09;1030572;28;20631;-69
2022/11/27 00:01:41;;;;;;;84.18;20.82;;;;;;;-1.64;100.00;97085.53;1035310;28;20014;-68
2022/11/27 00:02:12;;;;;;;89.53;21.48;;;;;;;-1.69;100.00;97089.38;1036124;28;20021;-67
2022/11/27 00:02:42;;;;;;;76.25;21.98;;;;;;;-1.69;100.00;97083.44;1039835;28;20037;-68
2022/11/27 00:03:13;;;;;;;77.32;19.10;;;;;;;-1.69;100.00;97089.38;1040355;28;20017;-69
2022/11/27 00:03:43;;;;;;;81.75;21.17;;;;;;;-1.73;100.00;97087.28;1035803;28;20496;-68
2022/11/27 00:04:13;;;;;;;99.40;21.40;;;;;;;-1.78;100.00;97085.16;1035246;28;20615;-69
2022/11/27 00:04:44;;;;;;;86.75;20.13;;;;;;;-1.72;100.00;97096.59;1032049;28;20026;-68
2022/11/27 00:05:15;;;;;;;107.55;23.35;;;;;;;-1.74;100.00;97096.78;1031971;28;20054;-69
2022/11/27 00:05:55;;;;;;;91.00;21.90;;;;;;;-1.81;100.00;97085.47;1031910;28;20018;-68
2022/11/27 00:06:26;;;;;;;69.04;19.18;;;;;;;-1.74;100.00;97091.63;1030659;28;20094;-69
2022/11/27 00:06:57;;;;;;;77.62;19.88;;;;;;;-1.74;100.00;97091.63;1035924;28;20508;-68
2022/11/27 00:07:27;;;;;;;66.50;19.50;;;;;;;-1.79;100.00;97083.53;1031409;28;20080;-69
2022/11/27 00:07:58;;;;;;;85.60;20.77;;;;;;;-1.78;100.00;97085.16;1028456;28;20564;-68
2022/11/27 00:08:28;;;;;;;87.35;21.25;;;;;;;-1.81;100.00;97082.91;1032073;28;20062;-68
2022/11/27 00:08:59;;;;;;;72.15;20.30;;;;;;;-1.77;100.00;97086.78;1032146;28;20050;-69
2022/11/27 00:09:32;;;;;;;75.10;20.58;;;;;;;-1.76;100.00;97090.16;1027940;28;20026;-68
2022/11/27 00:10:03;;;;;;;74.02;19.28;;;;;;;-1.75;100.00;97090.00;1032245;28;20034;-68
2022/11/27 00:10:33;;;;;;;65.85;20.48;;;;;;;-1.76;100.00;97082.44;1031898;28;20030;-68
2022/11/27 00:11:07;;;;;;;76.75;21.48;;;;;;;-1.84;100.00;97074.69;1031508;28;20471;-67
2022/11/27 00:11:39;;;;;;;65.42;18.54;;;;;;;-1.78;100.00;97079.19;1031767;28;20030;-68
2022/11/27 00:12:09;;;;;;;64.34;18.78;;;;;;;-1.78;100.00;97084.34;1028401;28;20030;-67
2022/11/27 00:12:40;;;;;;;79.88;20.00;;;;;;;-1.84;100.00;97074.69;1031948;28;20030;-68
2022/11/27 00:13:10;;;;;;;70.13;19.73;;;;;;;-1.79;100.00;97082.75;1036279;28;20056;-68
2022/11/27 00:13:40;;;;;;;72.43;18.60;;;;;;;-1.80;100.00;97083.72;1035887;28;20068;-70
2022/11/27 00:14:12;;;;;;;62.40;18.48;;;;;;;-1.85;100.00;97078.19;1040016;28;20069;-69
2022/11/27 00:14:43;;;;;;;69.38;19.80;;;;;;;-1.81;100.00;97082.06;1039956;28;20457;-67
2022/11/27 00:15:14;;;;;;;63.70;20.58;;;;;;;-1.82;100.00;97083.03;1040420;28;20070;-67
2022/11/27 00:15:44;;;;;;;63.78;20.46;;;;;;;-1.81;100.00;97084.63;1036324;28;20065;-69
2022/11/27 00:16:15;;;;;;;68.85;20.85;;;;;;;-1.81;100.00;97082.91;1035947;28;20446;-68
2022/11/27 00:16:45;;;;;;;67.13;19.10;;;;;;;-1.83;100.00;97084.81;1032262;28;20049;-68
2022/11/27 00:17:16;;;;;;;62.25;19.63;;;;;;;-1.81;100.00;97090.63;1032535;28;20030;-68
2022/11/27 00:17:46;;;;;;;56.97;19.25;;;;;;;-1.80;100.00;97087.09;1032232;28;20073;-67
2022/11/27 00:18:17;;;;;;;68.35;20.77;;;;;;;-1.81;100.00;97079.50;1036426;28;20029;-69
2022/11/27 00:18:47;;;;;;;56.20;19.30;;;;;;;-1.83;100.00;97077.09;1040162;28;20030;-68
2022/11/27 00:19:18;;;;;;;70.85;25.42;;;;;;;-1.79;100.00;97073.25;1035982;28;20399;-69
2022/11/27 00:19:48;;;;;;;81.30;25.55;;;;;;;-1.77;100.00;97078.25;1035984;28;20033;-68
2022/11/27 00:20:19;;;;;;;75.43;28.35;;;;;;;-1.78;100.00;97074.84;1035619;28;20026;-68
2022/11/27 00:20:49;;;;;;;78.05;25.50;;;;;;;-1.78;100.00;97069.72;1032170;28;20096;-67
2022/11/27 00:21:30;;;;;;;87.47;28.92;;;;;;;-1.76;100.00;97075.53;1031677;28;20088;-69
2022/11/27 00:22:01;;;;;;;92.20;28.14;;;;;;;-1.78;100.00;97074.84;1032055;28;20030;-67
2022/11/27 00:22:31;;;;;;;77.40;24.52;;;;;;;-1.76;100.00;97072.94;1028414;28;20038;-67
2022/11/27 00:23:02;;;;;;;68.95;22.85;;;;;;;-1.75;100.00;97071.19;1030884;28;20030;-68
2022/11/27 00:23:33;;;;;;;66.50;21.85;;;;;;;-1.78;100.00;97064.56;1032368;28;20062;-68
2022/11/27 00:24:04;;;;;;;58.55;20.60;;;;;;;-1.75;100.00;97069.41;1027828;28;20038;-68
2022/11/27 00:24:35;;;;;;;74.46;21.50;;;;;;;-1.75;100.00;97066.03;1026487;28;20610;-69
2022/11/27 00:25:06;;;;;;;64.63;22.08;;;;;;;-1.72;100.00;97066.53;1020441;29;20275;-68
2022/11/27 00:25:36;;;;;;;73.80;22.63;;;;;;;-1.72;100.00;97069.09;1020515;28;20035;-68
2022/11/27 00:26:07;;;;;;;58.15;20.98;;;;;;;-1.71;100.00;97070.75;1021370;28;20027;-67
2022/11/27 00:26:37;;;;;;;63.28;19.65;;;;;;;-1.71;100.00;97069.91;1019718;29;20027;-68
2022/11/27 00:27:08;;;;;;;66.20;21.38;;;;;;;-1.72;100.00;97065.72;1023861;28;20379;-68
2022/11/27 00:27:38;;;;;;;67.43;21.75;;;;;;;-1.71;100.00;97064.75;1024103;28;20038;-69
2022/11/27 00:28:09;;;;;;;61.33;19.08;;;;;;;-1.77;100.00;97058.47;1027968;28;20031;-68
2022/11/27 00:28:39;;;;;;;67.10;20.40;;;;;;;-1.73;100.00;97062.34;1035732;28;20022;-70
2022/11/27 00:29:10;;;;;;;56.83;19.65;;;;;;;-1.74;100.00;97060.75;1032193;28;20034;-68
2022/11/27 00:29:40;;;;;;;60.25;19.70;;;;;;;-1.80;100.00;97045.91;1035484;28;20472;-67
2022/11/27 00:30:11;;;;;;;58.35;18.67;;;;;;;-1.75;100.00;97059.13;1031832;28;20092;-67
2022/11/27 00:30:42;;;;;;;58.10;19.92;;;;;;;-1.77;100.00;97058.47;1031991;28;20464;-68
2022/11/27 00:31:14;;;;;;;51.45;17.92;;;;;;;-1.77;100.00;97050.75;1033409;28;20030;-69
2022/11/27 00:31:45;;;;;;;67.68;18.90;;;;;;;-1.77;100.00;97050.75;1031928;28;20779;-69
2022/11/27 00:32:15;;;;;;;54.15;19.50;;;;;;;-1.78;100.00;97051.69;1027232;28;20085;-68
2022/11/27 00:32:46;;;;;;;59.80;20.83;;;;;;;-1.78;100.00;97056.84;1027728;28;20049;-69
2022/11/27 00:33:16;;;;;;;53.95;18.52;;;;;;;-1.79;100.00;97050.09;1032889;28;20014;-69
2022/11/27 00:33:47;;;;;;;60.40;19.98;;;;;;;-1.89;100.00;97033.97;1043942;28;20551;-69
2022/11/27 00:34:17;;;;;;;67.68;19.38;;;;;;;-1.78;100.00;97048.31;1040069;28;20116;-67
2022/11/27 00:34:48;;;;;;;49.20;17.92;;;;;;;-1.77;100.00;97047.38;1031820;28;20289;-68
2022/11/27 00:35:18;;;;;;;62.35;19.75;;;;;;;-1.78;100.00;97046.56;1034765;28;20021;-70
2022/11/27 00:35:49;;;;;;;51.40;18.27;;;;;;;-1.77;100.00;97037.91;1036157;28;20025;-68
2022/11/27 00:36:19;;;;;;;55.63;19.05;;;;;;;-1.75;100.00;97042.88;1027977;28;20060;-67
2022/11/27 00:36:49;;;;;;;47.67;17.80;;;;;;;-1.73;100.00;97046.91;1035753;28;20588;-68
2022/11/27 00:37:20;;;;;;;48.38;18.10;;;;;;;-1.73;100.00;97046.91;1031745;28;20118;-68
2022/11/27 00:37:50;;;;;;;54.42;18.30;;;;;;;-1.72;100.00;97043.38;1031912;28;20022;-67
2022/11/27 00:38:21;;;;;;;45.13;18.00;;;;;;;-1.73;100.00;97041.78;1039806;28;20040;-70
2022/11/27 00:38:51;;;;;;;50.72;18.58;;;;;;;-1.70;100.00;97032.94;1035959;28;20463;-67
2022/11/27 00:39:22;;;;;;;48.55;18.35;;;;;;;-1.78;100.00;97025.97;1031617;28;20030;-68
2022/11/27 00:39:52;;;;;;;54.28;19.33;;;;;;;-1.78;100.00;97023.41;1027882;28;20085;-69
2022/11/27 00:40:22;;;;;;;47.05;16.17;;;;;;;-1.71;100.00;97029.56;1026611;28;20022;-68
2022/11/27 00:40:53;;;;;;;47.50;17.75;;;;;;;-1.70;100.00;97033.75;1031904;28;20026;-68
2022/11/27 00:41:25;;;;;;;54.00;16.90;;;;;;;-1.72;100.00;97030.50;1035816;28;20491;-68
2022/11/27 00:41:55;;;;;;;59.42;17.60;;;;;;;-1.68;100.00;97034.41;1036870;28;20559;-68
2022/11/27 00:42:26;;;;;;;42.33;17.67;;;;;;;-1.66;100.00;97032.47;1043259;28;20040;-68
2022/11/27 00:42:56;;;;;;;51.42;17.25;;;;;;;-1.70;100.00;97025.22;1040045;28;20025;-70
2022/11/27 00:43:27;;;;;;;47.13;15.90;;;;;;;-1.67;100.00;97033.44;1031185;28;20392;-67
2022/11/27 00:43:57;;;;;;;39.20;15.18;;;;;;;-1.68;100.00;97029.28;1031985;28;20034;-69
2022/11/27 00:44:27;;;;;;;46.53;16.45;;;;;;;-1.68;100.00;97031.84;1032970;28;20018;-67
2022/11/27 00:44:58;;;;;;;54.65;16.33;;;;;;;-1.66;100.00;97027.34;1031969;28;20130;-70
2022/11/27 00:45:28;;;;;;;40.78;16.40;;;;;;;-1.66;100.00;97032.47;1039867;28;20083;-69
2022/11/27 00:45:59;;;;;;;35.45;15.57;;;;;;;-1.66;100.00;97029.91;1039643;28;20029;-67
2022/11/27 00:46:30;;;;;;;35.85;15.98;;;;;;;-1.70;100.00;97028.59;1040020;28;20021;-68
2022/11/27 00:47:01;;;;;;;43.14;16.12;;;;;;;-1.68;100.00;97029.28;1030309;28;20045;-68
2022/11/27 00:47:31;;;;;;;36.28;15.80;;;;;;;-1.69;100.00;97030.22;1031878;28;20018;-68
2022/11/27 00:48:01;;;;;;;45.78;15.98;;;;;;;-1.71;100.00;97029.56;1036065;28;20018;-69
2022/11/27 00:48:32;;;;;;;35.58;15.85;;;;;;;-1.70;100.00;97028.59;1032133;28;20019;-66
2022/11/27 00:49:04;;;;;;;38.08;15.68;;;;;;;-1.69;100.00;97027.63;1039829;28;20029;-68
2022/11/27 00:49:34;;;;;;;30.76;14.46;;;;;;;-1.69;100.00;97030.22;1031857;28;20025;-67
2022/11/27 00:50:05;;;;;;;36.67;15.15;;;;;;;-1.71;100.00;97028.75;1031778;28;20033;-68
2022/11/27 00:50:36;;;;;;;31.74;14.42;;;;;;;-1.72;100.00;97027.13;1032001;28;20117;-68
2022/11/27 00:51:07;;;;;;;41.55;15.02;;;;;;;-1.72;100.00;97024.56;1032176;28;20444;-69
2022/11/27 00:51:37;;;;;;;31.26;13.88;;;;;;;-1.75;100.00;97028.25;1039734;28;20014;-68
2022/11/27 00:52:08;;;;;;;33.88;14.20;;;;;;;-1.73;100.00;97020.38;1033932;28;20038;-69
2022/11/27 00:52:39;;;;;;;34.47;15.40;;;;;;;-1.74;100.00;97022.16;1031244;28;20177;-68
2022/11/27 00:53:09;;;;;;;32.42;13.43;;;;;;;-1.75;100.00;97017.16;1035894;28;20045;-68
2022/11/27 00:53:40;;;;;;;36.78;14.05;;;;;;;-1.79;100.00;97018.44;1034437;28;20022;-67
2022/11/27 00:54:10;;;;;;;46.95;16.08;;;;;;;-1.78;100.00;97017.47;1027752;28;20058;-67
2022/11/27 00:54:40;;;;;;;43.38;16.60;;;;;;;-1.78;100.00;97023.41;1031742;28;20026;-68
2022/11/27 00:55:11;;;;;;;43.05;18.27;;;;;;;-1.79;100.00;97015.84;1027952;28;20055;-68
2022/11/27 00:55:41;;;;;;;46.47;17.67;;;;;;;-1.81;100.00;97012.63;1026818;28;20097;-68
2022/11/27 00:56:20;;;;;;;37.17;16.27;;;;;;;-1.86;100.00;97010.50;1031901;28;20619;-68
2022/11/27 00:56:51;;;;;;;40.54;16.24;;;;;;;-1.80;100.00;97021.97;1028980;28;20019;-69
2022/11/27 00:57:21;;;;;;;35.20;15.23;;;;;;;-1.81;100.00;97022.91;1024811;28;20038;-69
2022/11/27 00:57:51;;;;;;;39.05;14.70;;;;;;;-1.81;100.00;97022.91;1026172;28;20027;-68
2022/11/27 00:58:23;;;;;;;38.17;16.08;;;;;;;-1.83;100.00;97022.28;1032073;28;20528;-68
2022/11/27 00:58:53;;;;;;;40.54;16.82;;;;;;;-1.84;100.00;97029.19;1037565;28;20040;-71
2022/11/27 00:59:24;;;;;;;43.40;14.93;;;;;;;-1.85;100.00;97026.75;1039848;28;20021;-67
2022/11/27 00:59:54;;;;;;;36.20;14.75;;;;;;;-1.86;100.00;97031.09;1031683;28;20117;-69
2022/11/27 01:00:25;;;;;;;45.03;14.85;;;;;;;-1.86;100.00;97035.44;1032150;28;20022;-69
2022/11/27 01:00:56;;;;;;;45.03;14.55;;;;;;;-1.93;100.00;97030.88;1031874;28;20069;-68
2022/11/27 01:01:36;;;;;;;40.04;15.88;;;;;;;-1.94;100.00;97025.91;1031952;28;20025;-68
2022/11/27 01:02:06;;;;;;;35.47;14.85;;;;;;;-1.89;100.00;97031.38;1027685;28;20486;-69
2022/11/27 01:02:37;;;;;;;43.90;14.27;;;;;;;-1.93;100.00;97030.09;1023150;29;20037;-67
2022/11/27 01:03:07;;;;;;;37.03;14.27;;;;;;;-1.94;100.00;97033.63;1024102;29;20425;-69
2022/11/27 01:03:38;;;;;;;43.17;15.95;;;;;;;-1.94;100.00;97028.47;1023836;28;20031;-67
2022/11/27 01:04:11;;;;;;;36.50;14.70;;;;;;;-1.98;100.00;97025.41;1028572;28;20113;-70
2022/11/27 01:04:44;;;;;;;37.34;14.30;;;;;;;-1.99;100.00;97020.41;1032440;28;20025;-69
2022/11/27 01:05:15;;;;;;;37.80;15.84;;;;;;;-1.98;100.00;97027.97;1032167;28;20034;-68
2022/11/27 01:05:45;;;;;;;38.40;14.05;;;;;;;-1.99;100.00;97025.56;1033492;28;20491;-68
2022/11/27 01:06:17;;;;;;;40.22;15.27;;;;;;;-2.01;100.00;97023.13;1032255;28;20029;-69
2022/11/27 01:06:47;;;;;;;40.76;14.68;;;;;;;-2.01;100.00;97028.28;1035862;28;20005;-68
2022/11/27 01:07:18;;;;;;;37.17;14.48;;;;;;;-2.05;100.00;97024.38;1036113;28;20538;-70
2022/11/27 01:07:48;;;;;;;35.72;14.15;;;;;;;-2.01;100.00;97030.03;1035846;28;20423;-67
2022/11/27 01:08:19;;;;;;;39.80;14.77;;;;;;;-2.03;100.00;97024.25;1035824;28;20033;-70
2022/11/27 01:08:49;;;;;;;37.17;15.10;;;;;;;-2.03;100.00;97024.25;1036155;28;20102;-67
2022/11/27 01:09:20;;;;;;;31.70;14.07;;;;;;;-2.08;100.00;97018.72;1035569;28;20518;-67
2022/11/27 01:09:50;;;;;;;31.98;13.68;;;;;;;-2.03;100.00;97024.25;1036068;28;20085;-68
2022/11/27 01:10:21;;;;;;;34.45;13.90;;;;;;;-2.03;100.00;97025.03;1035425;28;20503;-68
2022/11/27 01:10:54;;;;;;;40.10;14.18;;;;;;;-2.06;100.00;97019.41;1031557;28;20061;-66
2022/11/27 01:11:26;;;;;;;32.70;13.20;;;;;;;-2.05;100.00;97019.22;1028090;28;20038;-68
2022/11/27 01:11:56;;;;;;;35.28;14.36;;;;;;;-2.11;100.00;97007.00;1028365;28;20102;-68
2022/11/27 01:12:27;;;;;;;30.98;13.50;;;;;;;-2.03;100.00;97021.66;1027402;28;20094;-68
2022/11/27 01:12:57;;;;;;;32.25;14.23;;;;;;;-2.03;100.00;97021.66;1028674;28;20027;-68
2022/11/27 01:13:30;;;;;;;30.45;13.25;;;;;;;-2.03;100.00;97014.75;1034606;28;20381;-69
2022/11/27 01:14:02;;;;;;;28.82;12.72;;;;;;;-2.08;100.00;97008.44;1035551;28;20508;-69
2022/11/27 01:14:33;;;;;;;34.28;13.66;;;;;;;-2.02;100.00;97011.22;1031610;28;20049;-67
2022/11/27 01:15:04;;;;;;;28.02;12.20;;;;;;;-1.97;100.00;97018.50;1030923;28;20516;-68
2022/11/27 01:15:34;;;;;;;27.15;12.52;;;;;;;-1.98;100.00;97017.69;1030365;28;20539;-67
2022/11/27 01:16:05;;;;;;;27.90;11.95;;;;;;;-1.96;100.00;97010.63;1035167;28;20014;-68
2022/11/27 01:16:36;;;;;;;24.98;11.38;;;;;;;-1.94;100.00;97013.06;1039099;28;20017;-66
2022/11/27 01:17:07;;;;;;;26.26;10.98;;;;;;;-1.93;100.00;97014.66;1035151;28;20488;-66
2022/11/27 01:17:37;;;;;;;29.00;11.00;;;;;;;-1.92;100.00;97021.41;1032698;28;20018;-66
2022/11/27 01:18:08;;;;;;;26.63;11.98;;;;;;;-1.93;100.00;97014.66;1027186;28;20019;-69
2022/11/27 01:18:39;;;;;;;26.27;11.45;;;;;;;-1.92;100.00;97016.25;1024326;28;20620;-69
2022/11/27 01:19:10;;;;;;;23.84;11.08;;;;;;;-1.90;100.00;97016.94;1031124;28;20029;-67
2022/11/27 01:19:41;;;;;;;22.38;11.06;;;;;;;-1.89;100.00;97015.97;1027748;28;20303;-69
2022/11/27 01:20:11;;;;;;;23.40;10.88;;;;;;;-1.91;100.00;97013.56;1031017;28;20026;-68
2022/11/27 01:20:42;;;;;;;25.83;11.77;;;;;;;-1.89;100.00;97021.09;1030161;28;20049;-69
2022/11/27 01:21:13;;;;;;;24.70;11.40;;;;;;;-1.91;100.00;97017.91;1031367;28;20014;-68
2022/11/27 01:21:44;;;;;;;19.60;9.42;;;;;;;-1.91;100.00;97012.75;1039159;28;20025;-68
2022/11/27 01:22:14;;;;;;;22.05;10.25;;;;;;;-2.01;100.00;97007.72;1031088;28;20400;-69
2022/11/27 01:22:45;;;;;;;23.23;10.82;;;;;;;-1.96;100.00;97015.75;1028696;28;20473;-70
2022/11/27 01:23:16;;;;;;;19.63;10.00;;;;;;;-1.97;100.00;97010.78;1029474;28;20603;-68
2022/11/27 01:23:47;;;;;;;20.28;9.62;;;;;;;-1.97;100.00;97011.59;1035754;28;20033;-67
2022/11/27 01:24:17;;;;;;;20.88;10.07;;;;;;;-1.98;100.00;97009.16;1039505;28;20060;-67
2022/11/27 01:24:48;;;;;;;21.08;10.95;;;;;;;-2.00;100.00;97013.66;1039517;28;20476;-67
2022/11/27 01:25:18;;;;;;;22.23;10.00;;;;;;;-2.20;100.00;96987.34;1039471;28;20037;-67
2022/11/27 01:25:49;;;;;;;19.25;10.35;;;;;;;-2.00;100.00;97013.66;1031205;28;20014;-69
2022/11/27 01:26:19;;;;;;;23.33;10.30;;;;;;;-2.01;100.00;97014.59;1034380;28;20037;-67
2022/11/27 01:26:50;;;;;;;22.15;10.70;;;;;;;-2.00;100.00;97011.88;1031178;28;20399;-67
2022/11/27 01:27:20;;;;;;;27.13;11.27;;;;;;;-2.00;100.00;97006.75;1031117;28;20488;-66
2022/11/27 01:27:51;;;;;;;25.38;11.77;;;;;;;-1.98;100.00;97007.41;1033113;28;20405;-68
2022/11/27 01:28:22;;;;;;;27.80;12.48;;;;;;;-1.99;100.00;97002.41;1039156;28;20446;-66
2022/11/27 01:28:53;;;;;;;24.30;12.82;;;;;;;-2.06;100.00;96996.25;1035436;28;20105;-67
2022/11/27 01:29:23;;;;;;;24.76;12.60;;;;;;;-1.99;100.00;97010.91;1039421;28;20028;-66
2022/11/27 01:29:54;;;;;;;26.80;12.73;;;;;;;-2.00;100.00;97003.38;1043384;28;20060;-67
2022/11/27 01:30:24;;;;;;;25.33;12.32;;;;;;;-2.00;100.00;97013.66;1043725;28;20052;-68
2022/11/27 01:30:55;;;;;;;23.85;11.85;;;;;;;-2.01;100.00;97006.88;1039427;28;20026;-69
2022/11/27 01:31:27;;;;;;;24.23;11.77;;;;;;;-2.02;100.00;97002.72;1034872;28;20056;-68
2022/11/27 01:31:58;;;;;;;22.38;11.00;;;;;;;-2.01;100.00;97010.28;1027390;28;20031;-67
2022/11/27 01:32:28;;;;;;;22.10;11.02;;;;;;;-2.01;100.00;97002.56;1026333;28;20026;-68
2022/11/27 01:32:58;;;;;;;23.30;10.65;;;;;;;-2.01;100.00;97001.75;1029272;28;20023;-68
2022/11/27 01:33:29;;;;;;;26.48;12.02;;;;;;;-2.02;100.00;97005.28;1032951;28;20770;-68
2022/11/27 01:34:07;;;;;;;23.13;11.68;;;;;;;-2.02;100.00;96998.38;1031173;28;20061;-68
2022/11/27 01:34:37;;;;;;;24.04;11.06;;;;;;;-2.01;100.00;96996.59;1039477;28;20091;-69
2022/11/27 01:35:08;;;;;;;22.08;10.73;;;;;;;-2.13;100.00;96984.00;1039043;28;20051;-67
2022/11/27 01:35:38;;;;;;;26.10;12.13;;;;;;;-2.09;100.00;96994.00;1034869;28;20018;-69
2022/11/27 01:36:09;;;;;;;22.17;10.80;;;;;;;-2.03;100.00;97001.09;1035545;28;20022;-68
2022/11/27 01:36:40;;;;;;;26.65;12.20;;;;;;;-2.02;100.00;97000.13;1035421;28;20522;-68
2022/11/27 01:37:10;;;;;;;24.88;11.63;;;;;;;-2.04;100.00;96992.59;1039448;28;20260;-67
2022/11/27 01:37:41;;;;;;;20.42;10.80;;;;;;;-2.02;100.00;97002.72;1035098;28;20025;-67
2022/11/27 01:38:11;;;;;;;26.27;11.15;;;;;;;-2.03;100.00;97006.25;1039331;28;20021;-67
2022/11/27 01:38:42;;;;;;;22.50;10.88;;;;;;;-2.12;100.00;96992.53;1036138;28;20018;-68
2022/11/27 01:39:17;;;;;;;20.17;10.57;;;;;;;-2.09;100.00;96999.13;1035268;28;20014;-67
2022/11/27 01:39:48;;;;;;;21.90;11.48;;;;;;;-2.06;100.00;97004.78;1034949;28;20087;-67
2022/11/27 01:40:18;;;;;;;23.77;11.20;;;;;;;-2.05;100.00;97010.72;1037859;28;20033;-68
2022/11/27 01:41:15;;;;;;;22.98;11.23;;;;;;;-2.06;100.00;97007.34;1031401;28;20022;-67
2022/11/27 01:41:46;;;;;;;26.96;11.04;;;;;;;-2.12;100.00;96997.66;1031077;28;20051;-69
2022/11/27 01:42:17;;;;;;;30.10;12.05;;;;;;;-2.08;100.00;97003.31;1022846;28;20508;-68
2022/11/27 01:42:47;;;;;;;26.58;11.27;;;;;;;-2.10;100.00;97007.81;1030768;28;20484;-68
2022/11/27 01:43:38;;;;;;;21.85;11.30;;;;;;;-2.12;100.00;97010.53;1035137;28;20438;-68
2022/11/27 01:44:23;;;;;;;;;;;;;;;-2.11;100.00;97001.88;1039139;28;20025;-68
2022/11/27 01:44:54;;;;;;;28.82;11.84;;;;;;;-2.10;100.00;97005.25;1039562;28;19915;-68
2022/11/27 01:45:25;;;;;;;24.77;11.95;;;;;;;-2.11;100.00;96998.47;1034016;28;20098;-69
2022/11/27 01:45:55;;;;;;;23.38;11.98;;;;;;;-2.10;100.00;97003.47;1029786;28;20077;-68
2022/11/27 01:46:45;;;;;;;22.95;11.98;;;;;;;-2.12;100.00;97000.22;1031308;28;20429;-68
2022/11/27 01:47:32;;;;;;;26.85;11.98;;;;;;;-2.14;100.00;96997.81;1032701;28;20023;-69
2022/11/27 01:48:03;;;;;;;27.02;12.56;;;;;;;-2.16;100.00;96991.22;1039639;28;20057;-68
2022/11/27 01:48:33;;;;;;;26.83;11.77;;;;;;;-2.19;100.00;96994.88;1030932;28;20018;-68
2022/11/27 01:49:09;;;;;;;30.67;13.13;;;;;;;-2.18;100.00;97001.66;1021693;29;20020;-67
2022/11/27 01:49:43;;;;;;;26.46;12.90;;;;;;;-2.27;100.00;96989.72;1026238;28;20035;-67
2022/11/27 01:50:16;;;;;;;25.56;12.74;;;;;;;-2.26;100.00;96988.75;1025820;28;20106;-68
2022/11/27 01:50:47;;;;;;;30.60;13.42;;;;;;;-2.23;100.00;96996.16;1031074;28;20023;-68
2022/11/27 01:51:18;;;;;;;29.27;14.63;;;;;;;-2.22;100.00;96994.38;1031661;28;20027;-68
2022/11/27 01:51:50;;;;;;;32.22;14.42;;;;;;;-2.20;100.00;97003.56;1028939;28;20658;-68
2022/11/27 01:52:30;;;;;;;28.62;13.54;;;;;;;-2.21;100.00;96996.03;1034926;28;20029;-66
2022/11/27 01:53:13;;;;;;;25.55;12.80;;;;;;;-2.21;100.00;96999.41;1035447;28;20037;-67
2022/11/27 01:53:43;;;;;;;27.34;12.80;;;;;;;-2.21;100.00;96994.25;1035694;28;20026;-68
2022/11/27 01:54:14;;;;;;;31.52;13.63;;;;;;;-2.22;100.00;96995.19;1039470;28;20026;-68
2022/11/27 01:54:45;;;;;;;26.52;12.77;;;;;;;-2.21;100.00;96996.81;1035377;28;20021;-66
2022/11/27 01:55:22;;;;;;;33.52;13.88;;;;;;;-2.24;100.00;96991.97;1033549;28;20034;-68
2022/11/27 01:55:54;;;;;;;28.56;13.30;;;;;;;-2.23;100.00;96997.94;1031410;28;20045;-68
2022/11/27 01:56:25;;;;;;;31.34;14.08;;;;;;;-2.25;100.00;96992.91;1032773;28;20070;-68
2022/11/27 01:56:58;;;;;;;32.22;13.20;;;;;;;-2.30;100.00;96994.34;1036603;28;20026;-68
2022/11/27 01:57:40;;;;;;;24.44;12.38;;;;;;;-2.29;100.00;96993.38;1032809;28;20025;-68
2022/11/27 01:58:18;;;;;;;32.40;13.72;;;;;;;-2.31;100.00;96990.97;1035382;28;20636;-68
2022/11/27 01:58:49;;;;;;;30.78;13.46;;;;;;;-2.31;100.00;96996.13;1031253;28;20037;-68
2022/11/27 01:59:19;;;;;;;26.95;12.70;;;;;;;-2.29;100.00;97001.91;1037126;28;20494;-68
2022/11/27 01:59:50;;;;;;;34.90;14.00;;;;;;;-2.33;100.00;96998.00;1028545;28;20026;-67
2022/11/27 02:00:20;;;;;;;31.52;13.95;;;;;;;-2.40;100.00;96986.72;1032221;28;20033;-68
2022/11/27 02:00:51;;;;;;;27.98;14.18;;;;;;;-2.43;100.00;96987.03;1031255;28;20030;-68
2022/11/27 02:01:23;;;;;;;25.90;12.98;;;;;;;-2.38;100.00;97000.25;1035391;28;20022;-68
2022/11/27 02:01:53;;;;;;;28.00;13.14;;;;;;;-2.45;100.00;96983.78;1031891;28;20096;-68
2022/11/27 02:02:24;;;;;;;24.73;13.18;;;;;;;-2.40;100.00;96994.44;1024038;28;20077;-67
2022/11/27 02:02:54;;;;;;;28.55;13.07;;;;;;;-2.45;100.00;96994.06;1023627;28;20024;-68
2022/11/27 02:03:25;;;;;;;31.50;13.80;;;;;;;-2.49;100.00;96978.16;1023724;28;20075;-68
2022/11/27 02:03:57;;;;;;;24.70;12.68;;;;;;;-2.42;100.00;96989.44;1023457;28;20015;-68
2022/11/27 02:04:27;;;;;;;22.96;11.92;;;;;;;-2.45;100.00;96987.19;1024016;28;20061;-68
2022/11/27 02:04:58;;;;;;;25.98;12.40;;;;;;;-2.42;100.00;96993.78;1023201;29;20038;-68
2022/11/27 02:05:28;;;;;;;26.08;11.98;;;;;;;-2.42;100.00;96988.63;1023738;28;20027;-69
2022/11/27 02:05:59;;;;;;;24.10;12.15;;;;;;;-2.46;100.00;96985.56;1027384;28;20485;-69
2022/11/27 02:06:29;;;;;;;26.40;13.32;;;;;;;-2.41;100.00;96985.13;1027296;28;20101;-67
2022/11/27 02:07:00;;;;;;;25.98;13.27;;;;;;;-2.43;100.00;96982.69;1027208;28;20046;-68
2022/11/27 02:07:30;;;;;;;26.85;13.23;;;;;;;-2.47;100.00;96972.88;1030055;28;20035;-67
2022/11/27 02:08:04;;;;;;;22.73;11.55;;;;;;;-2.49;100.00;96978.16;1035361;28;20026;-68
2022/11/27 02:08:34;;;;;;;21.48;11.60;;;;;;;-2.42;100.00;96983.50;1031541;28;20085;-67
2022/11/27 02:09:05;;;;;;;24.20;11.95;;;;;;;-2.44;100.00;96986.22;1027225;28;20085;-66
2022/11/27 02:09:35;;;;;;;28.13;12.63;;;;;;;-2.45;100.00;96981.22;1027074;28;20022;-67
2022/11/27 02:10:06;;;;;;;22.57;12.07;;;;;;;-2.45;100.00;96983.78;1024556;28;20398;-68
2022/11/27 02:10:59;;;;;;;26.15;12.30;;;;;;;-2.47;100.00;96976.25;1031770;28;20060;-68
2022/11/27 02:11:39;;;;;;;21.60;10.98;;;;;;;-2.45;100.00;96978.66;1030791;28;20097;-68
2022/11/27 02:12:25;;;;;;;24.23;11.00;;;;;;;-2.46;100.00;96971.91;1023561;28;20117;-68
2022/11/27 02:12:59;;;;;;;24.40;12.04;;;;;;;-2.52;100.00;96962.22;1027941;28;20413;-68
2022/11/27 02:13:37;;;;;;;27.14;12.14;;;;;;;-2.51;100.00;96966.44;1031626;28;20061;-68
2022/11/27 02:14:31;;;;;;;24.10;12.08;;;;;;;-2.46;100.00;96966.75;1030663;28;20023;-69
2022/11/27 02:15:09;;;;;;;27.02;11.92;;;;;;;-2.46;100.00;96969.34;1031647;28;20018;-68
2022/11/27 02:15:42;;;;;;;27.34;11.44;;;;;;;-2.46;100.00;96966.75;1034372;28;20045;-68
2022/11/27 02:16:18;;;;;;;28.80;12.94;;;;;;;-2.47;100.00;96960.81;1035248;28;20025;-68
2022/11/27 02:16:54;;;;;;;25.02;12.32;;;;;;;-2.45;100.00;96963.22;1037890;28;20137;-69
2022/11/27 02:17:49;;;;;;;22.76;12.32;;;;;;;-2.46;100.00;96961.63;1041162;28;20053;-70
2022/11/27 02:18:35;;;;;;;25.40;12.02;;;;;;;-2.46;100.00;96961.63;1035671;28;20101;-68
2022/11/27 02:19:11;;;;;;;25.77;12.23;;;;;;;-2.45;100.00;96956.34;1031723;28;20032;-66
2022/11/27 02:20:18;;;;;;;31.84;13.18;;;;;;;-2.45;100.00;96955.53;1035510;28;20025;-68
2022/11/27 02:20:58;;;;;;;26.35;11.82;;;;;;;-2.46;100.00;96952.16;1028829;28;20405;-67
2022/11/27 02:21:36;;;;;;;;;;;;;;;-2.46;100.00;96957.28;1036439;28;20034;-69
2022/11/27 02:22:23;;;;;;;24.23;11.48;;;;;;;-2.47;100.00;96947.19;1035311;28;19901;-67
2022/11/27 02:23:14;;;;;;;29.67;13.75;;;;;;;-2.44;100.00;96946.88;1031349;28;20015;-69
2022/11/27 02:24:02;;;;;;;28.23;13.15;;;;;;;-2.43;100.00;96943.34;1040296;28;20020;-69
2022/11/27 02:24:39;;;;;;;28.90;12.48;;;;;;;-2.42;100.00;96944.94;1040679;28;20033;-68
2022/11/27 02:25:12;;;;;;;29.23;12.40;;;;;;;-2.39;100.00;96947.22;1043828;28;20486;-68
2022/11/27 02:25:57;;;;;;;28.40;13.75;;;;;;;-2.39;100.00;96939.50;1039265;28;20032;-68
2022/11/27 02:26:50;;;;;;;34.78;14.02;;;;;;;-2.40;100.00;96937.91;1034780;28;20451;-68
2022/11/27 02:27:23;;;;;;;33.72;13.98;;;;;;;-2.45;100.00;96933.22;1033084;28;20025;-68
2022/11/27 02:28:18;;;;;;;40.58;14.94;;;;;;;-2.41;100.00;96933.72;1038980;28;20021;-68